sensor_id;sensor_type;location;lat;lon;timestamp;temperature;humidity
18139;DHT22;9195;53.176;9.486;2022-08-03T00:01:55;21.20;99.90
18139;DHT22;9195;53.176;9.486;2022-08-03T00:04:21;21.10;99.90
18139;DHT22;9195;53.176;9.486;2022-08-03T00:06:46;21.10;99.90
18139;DHT22;9195;53.176;9.486;2022-08-03T00:09:12;21.10;99.90
18139;DHT22;9195;53.176;9.486;2022-08-03T00:11:38;21.10;99.90
18139;DHT22;9195;53.176;9.486;2022-08-03T00:14:07;21.00;99.90
18139;DHT22;9195;53.176;9.486;2022-08-03T00:16:32;21.00;99.90
18139;DHT22;9195;53.176;9.486;2022-08-03T00:18:59;21.00;99.90
18139;DHT22;9195;53.176;9.486;2022-08-03T00:21:25;21.00;99.90
18139;DHT22;9195;53.176;9.486;2022-08-03T00:23:51;21.00;99.90
18139;DHT22;9195;53.176;9.486;2022-08-03T00:26:17;21.00;99.90
18139;DHT22;9195;53.176;9.486;2022-08-03T00:28:42;20.90;99.90
18139;DHT22;9195;53.176;9.486;2022-08-03T00:31:08;20.90;99.90
18139;DHT22;9195;53.176;9.486;2022-08-03T00:33:34;20.90;99.90
18139;DHT22;9195;53.176;9.486;2022-08-03T00:35:59;20.80;99.90
18139;DHT22;9195;53.176;9.486;2022-08-03T00:38:25;20.80;99.90
18139;DHT22;9195;53.176;9.486;2022-08-03T00:40:50;20.80;99.90
18139;DHT22;9195;53.176;9.486;2022-08-03T00:43:16;20.80;99.90
18139;DHT22;9195;53.176;9.486;2022-08-03T00:45:42;20.80;99.90
18139;DHT22;9195;53.176;9.486;2022-08-03T00:48:10;20.80;99.90
18139;DHT22;9195;53.176;9.486;2022-08-03T00:50:39;20.80;99.90
18139;DHT22;9195;53.176;9.486;2022-08-03T00:53:07;20.70;99.90
18139;DHT22;9195;53.176;9.486;2022-08-03T00:55:35;20.70;99.90
18139;DHT22;9195;53.176;9.486;2022-08-03T00:58:03;20.70;99.90
18139;DHT22;9195;53.176;9.486;2022-08-03T01:00:33;20.60;99.90
18139;DHT22;9195;53.176;9.486;2022-08-03T01:03:01;20.60;99.90
18139;DHT22;9195;53.176;9.486;2022-08-03T01:05:27;20.50;99.90
18139;DHT22;9195;53.176;9.486;2022-08-03T01:10:38;20.40;99.90
18139;DHT22;9195;53.176;9.486;2022-08-03T01:15:45;20.40;99.90
18139;DHT22;9195;53.176;9.486;2022-08-03T01:18:21;20.40;99.90
18139;DHT22;9195;53.176;9.486;2022-08-03T01:20:52;20.30;99.90
18139;DHT22;9195;53.176;9.486;2022-08-03T01:31:16;20.20;99.90
18139;DHT22;9195;53.176;9.486;2022-08-03T01:33:45;20.10;99.90
18139;DHT22;9195;53.176;9.486;2022-08-03T01:36:16;20.10;99.90
18139;DHT22;9195;53.176;9.486;2022-08-03T01:38:50;20.10;99.90
18139;DHT22;9195;53.176;9.486;2022-08-03T01:41:30;20.00;99.90
18139;DHT22;9195;53.176;9.486;2022-08-03T01:44:00;20.00;99.90
18139;DHT22;9195;53.176;9.486;2022-08-03T01:46:26;20.00;99.90
18139;DHT22;9195;53.176;9.486;2022-08-03T01:48:54;19.90;99.90
18139;DHT22;9195;53.176;9.486;2022-08-03T01:51:21;19.90;99.90
18139;DHT22;9195;53.176;9.486;2022-08-03T01:53:48;19.80;99.90
18139;DHT22;9195;53.176;9.486;2022-08-03T01:56:16;19.80;99.90
18139;DHT22;9195;53.176;9.486;2022-08-03T01:58:43;19.70;99.90
18139;DHT22;9195;53.176;9.486;2022-08-03T02:01:11;19.70;99.90
18139;DHT22;9195;53.176;9.486;2022-08-03T02:03:39;19.70;99.90
18139;DHT22;9195;53.176;9.486;2022-08-03T02:06:09;19.70;99.90
18139;DHT22;9195;53.176;9.486;2022-08-03T02:08:36;19.60;99.90
18139;DHT22;9195;53.176;9.486;2022-08-03T02:11:03;19.60;99.90
18139;DHT22;9195;53.176;9.486;2022-08-03T02:13:32;19.50;99.90
18139;DHT22;9195;53.176;9.486;2022-08-03T02:15:59;19.60;99.90
18139;DHT22;9195;53.176;9.486;2022-08-03T02:18:26;19.50;99.90
18139;DHT22;9195;53.176;9.486;2022-08-03T02:20:52;19.50;99.90
18139;DHT22;9195;53.176;9.486;2022-08-03T02:23:18;19.40;99.90
18139;DHT22;9195;53.176;9.486;2022-08-03T02:25:47;19.40;99.90
18139;DHT22;9195;53.176;9.486;2022-08-03T02:28:23;19.40;99.90
18139;DHT22;9195;53.176;9.486;2022-08-03T02:30:53;19.40;99.90
18139;DHT22;9195;53.176;9.486;2022-08-03T02:33:27;19.30;99.90
18139;DHT22;9195;53.176;9.486;2022-08-03T02:35:56;19.30;99.90
18139;DHT22;9195;53.176;9.486;2022-08-03T02:38:27;19.30;99.90
18139;DHT22;9195;53.176;9.486;2022-08-03T02:40:54;19.20;99.90
18139;DHT22;9195;53.176;9.486;2022-08-03T02:43:23;19.20;99.90
18139;DHT22;9195;53.176;9.486;2022-08-03T02:45:50;19.20;99.90
18139;DHT22;9195;53.176;9.486;2022-08-03T02:48:20;19.20;99.90
18139;DHT22;9195;53.176;9.486;2022-08-03T02:50:48;19.10;99.90
18139;DHT22;9195;53.176;9.486;2022-08-03T02:53:16;19.10;99.90
18139;DHT22;9195;53.176;9.486;2022-08-03T02:55:43;19.10;99.90
18139;DHT22;9195;53.176;9.486;2022-08-03T02:58:12;19.00;99.90
18139;DHT22;9195;53.176;9.486;2022-08-03T03:00:39;19.00;99.90
18139;DHT22;9195;53.176;9.486;2022-08-03T03:03:05;19.00;99.90
18139;DHT22;9195;53.176;9.486;2022-08-03T03:05:32;19.00;99.90
18139;DHT22;9195;53.176;9.486;2022-08-03T03:07:58;18.90;99.90
18139;DHT22;9195;53.176;9.486;2022-08-03T03:10:25;18.90;99.90
18139;DHT22;9195;53.176;9.486;2022-08-03T03:12:54;18.90;99.90
18139;DHT22;9195;53.176;9.486;2022-08-03T03:15:21;18.80;99.90
18139;DHT22;9195;53.176;9.486;2022-08-03T03:17:48;18.80;99.90
18139;DHT22;9195;53.176;9.486;2022-08-03T03:20:16;18.80;99.90
18139;DHT22;9195;53.176;9.486;2022-08-03T03:22:42;18.80;99.90
18139;DHT22;9195;53.176;9.486;2022-08-03T03:25:09;18.80;99.90
18139;DHT22;9195;53.176;9.486;2022-08-03T03:27:35;18.80;99.90
18139;DHT22;9195;53.176;9.486;2022-08-03T03:30:02;18.80;99.90
18139;DHT22;9195;53.176;9.486;2022-08-03T03:32:28;18.70;99.90
18139;DHT22;9195;53.176;9.486;2022-08-03T03:34:55;18.70;99.90
18139;DHT22;9195;53.176;9.486;2022-08-03T03:37:21;18.70;99.90
18139;DHT22;9195;53.176;9.486;2022-08-03T03:39:46;18.70;99.90
18139;DHT22;9195;53.176;9.486;2022-08-03T03:42:12;18.70;99.90
18139;DHT22;9195;53.176;9.486;2022-08-03T03:44:38;18.60;99.90
18139;DHT22;9195;53.176;9.486;2022-08-03T03:47:04;18.60;99.90
18139;DHT22;9195;53.176;9.486;2022-08-03T03:49:30;18.60;99.90
18139;DHT22;9195;53.176;9.486;2022-08-03T03:51:56;18.60;99.90
18139;DHT22;9195;53.176;9.486;2022-08-03T03:54:22;18.60;99.90
18139;DHT22;9195;53.176;9.486;2022-08-03T03:56:47;18.60;99.90
18139;DHT22;9195;53.176;9.486;2022-08-03T03:59:13;18.60;99.90
18139;DHT22;9195;53.176;9.486;2022-08-03T04:01:39;18.50;99.90
18139;DHT22;9195;53.176;9.486;2022-08-03T04:04:05;18.60;99.90
18139;DHT22;9195;53.176;9.486;2022-08-03T04:06:49;18.50;99.90
18139;DHT22;9195;53.176;9.486;2022-08-03T04:09:37;18.50;99.90
18139;DHT22;9195;53.176;9.486;2022-08-03T04:12:25;18.50;99.90
18139;DHT22;9195;53.176;9.486;2022-08-03T04:14:53;18.50;99.90
18139;DHT22;9195;53.176;9.486;2022-08-03T04:17:23;18.50;99.90
18139;DHT22;9195;53.176;9.486;2022-08-03T04:19:52;18.50;99.90
18139;DHT22;9195;53.176;9.486;2022-08-03T04:22:23;18.60;99.90
18139;DHT22;9195;53.176;9.486;2022-08-03T04:24:52;18.60;99.90
18139;DHT22;9195;53.176;9.486;2022-08-03T04:27:22;18.60;99.90
18139;DHT22;9195;53.176;9.486;2022-08-03T04:29:51;18.60;99.90
18139;DHT22;9195;53.176;9.486;2022-08-03T04:32:18;18.60;99.90
18139;DHT22;9195;53.176;9.486;2022-08-03T04:34:45;18.60;99.90
18139;DHT22;9195;53.176;9.486;2022-08-03T04:37:25;18.70;99.90
18139;DHT22;9195;53.176;9.486;2022-08-03T04:39:56;18.70;99.90
18139;DHT22;9195;53.176;9.486;2022-08-03T04:42:23;18.70;99.90
18139;DHT22;9195;53.176;9.486;2022-08-03T04:44:51;18.70;99.90
18139;DHT22;9195;53.176;9.486;2022-08-03T04:47:17;18.70;99.90
18139;DHT22;9195;53.176;9.486;2022-08-03T04:49:42;18.80;99.90
18139;DHT22;9195;53.176;9.486;2022-08-03T04:52:09;18.80;99.90
18139;DHT22;9195;53.176;9.486;2022-08-03T04:54:39;18.80;99.90
18139;DHT22;9195;53.176;9.486;2022-08-03T04:57:05;18.80;99.90
18139;DHT22;9195;53.176;9.486;2022-08-03T04:59:30;18.90;99.90
18139;DHT22;9195;53.176;9.486;2022-08-03T05:01:56;18.90;99.90
18139;DHT22;9195;53.176;9.486;2022-08-03T05:04:21;19.00;99.90
18139;DHT22;9195;53.176;9.486;2022-08-03T05:06:47;19.00;99.90
18139;DHT22;9195;53.176;9.486;2022-08-03T05:09:13;19.10;99.90
18139;DHT22;9195;53.176;9.486;2022-08-03T05:11:38;19.10;99.90
18139;DHT22;9195;53.176;9.486;2022-08-03T05:14:04;19.20;99.90
18139;DHT22;9195;53.176;9.486;2022-08-03T05:16:29;19.20;99.90
18139;DHT22;9195;53.176;9.486;2022-08-03T05:18:55;19.30;99.90
18139;DHT22;9195;53.176;9.486;2022-08-03T05:21:21;19.40;99.90
18139;DHT22;9195;53.176;9.486;2022-08-03T05:23:47;19.40;99.90
18139;DHT22;9195;53.176;9.486;2022-08-03T05:26:12;19.50;99.90
18139;DHT22;9195;53.176;9.486;2022-08-03T05:28:38;19.60;99.90
18139;DHT22;9195;53.176;9.486;2022-08-03T05:31:04;19.60;99.90
18139;DHT22;9195;53.176;9.486;2022-08-03T05:33:30;19.70;99.90
18139;DHT22;9195;53.176;9.486;2022-08-03T05:35:55;19.80;99.90
18139;DHT22;9195;53.176;9.486;2022-08-03T05:38:21;19.90;99.90
18139;DHT22;9195;53.176;9.486;2022-08-03T05:40:47;19.90;99.90
18139;DHT22;9195;53.176;9.486;2022-08-03T05:43:12;20.00;99.90
18139;DHT22;9195;53.176;9.486;2022-08-03T05:45:38;20.10;99.90
18139;DHT22;9195;53.176;9.486;2022-08-03T05:48:04;20.20;99.90
18139;DHT22;9195;53.176;9.486;2022-08-03T05:50:30;20.30;99.90
18139;DHT22;9195;53.176;9.486;2022-08-03T05:52:56;20.40;99.90
18139;DHT22;9195;53.176;9.486;2022-08-03T05:55:24;20.50;99.90
18139;DHT22;9195;53.176;9.486;2022-08-03T05:57:50;20.50;99.90
18139;DHT22;9195;53.176;9.486;2022-08-03T06:00:16;20.60;99.90
18139;DHT22;9195;53.176;9.486;2022-08-03T06:02:42;20.70;99.90
18139;DHT22;9195;53.176;9.486;2022-08-03T06:05:08;20.80;99.90
18139;DHT22;9195;53.176;9.486;2022-08-03T06:07:34;20.90;99.90
18139;DHT22;9195;53.176;9.486;2022-08-03T06:10:00;21.00;99.90
18139;DHT22;9195;53.176;9.486;2022-08-03T06:12:28;21.00;99.90
18139;DHT22;9195;53.176;9.486;2022-08-03T06:14:54;21.20;99.90
18139;DHT22;9195;53.176;9.486;2022-08-03T06:17:20;21.20;99.90
18139;DHT22;9195;53.176;9.486;2022-08-03T06:19:46;21.40;99.90
18139;DHT22;9195;53.176;9.486;2022-08-03T06:22:11;21.50;99.90
18139;DHT22;9195;53.176;9.486;2022-08-03T06:24:37;21.50;99.90
18139;DHT22;9195;53.176;9.486;2022-08-03T06:27:02;21.60;99.90
18139;DHT22;9195;53.176;9.486;2022-08-03T06:29:29;21.70;99.90
18139;DHT22;9195;53.176;9.486;2022-08-03T06:31:54;21.80;99.90
18139;DHT22;9195;53.176;9.486;2022-08-03T06:34:20;21.90;99.90
18139;DHT22;9195;53.176;9.486;2022-08-03T06:36:46;22.00;99.90
18139;DHT22;9195;53.176;9.486;2022-08-03T06:39:12;22.10;99.90
18139;DHT22;9195;53.176;9.486;2022-08-03T06:41:38;22.20;99.90
18139;DHT22;9195;53.176;9.486;2022-08-03T06:44:04;22.40;99.90
18139;DHT22;9195;53.176;9.486;2022-08-03T06:46:30;22.50;99.90
18139;DHT22;9195;53.176;9.486;2022-08-03T06:48:55;22.60;99.90
18139;DHT22;9195;53.176;9.486;2022-08-03T06:51:21;22.70;99.90
18139;DHT22;9195;53.176;9.486;2022-08-03T06:53:48;22.90;99.90
18139;DHT22;9195;53.176;9.486;2022-08-03T06:56:13;22.90;99.90
18139;DHT22;9195;53.176;9.486;2022-08-03T06:58:39;23.00;99.90
18139;DHT22;9195;53.176;9.486;2022-08-03T07:01:04;23.00;99.90
18139;DHT22;9195;53.176;9.486;2022-08-03T07:03:30;23.10;99.90
18139;DHT22;9195;53.176;9.486;2022-08-03T07:05:55;23.20;99.90
18139;DHT22;9195;53.176;9.486;2022-08-03T07:08:21;23.30;99.90
18139;DHT22;9195;53.176;9.486;2022-08-03T07:10:48;23.40;99.90
18139;DHT22;9195;53.176;9.486;2022-08-03T07:13:14;23.50;99.90
18139;DHT22;9195;53.176;9.486;2022-08-03T07:15:40;23.50;99.90
18139;DHT22;9195;53.176;9.486;2022-08-03T07:18:05;23.70;99.90
18139;DHT22;9195;53.176;9.486;2022-08-03T07:20:31;23.80;99.90
18139;DHT22;9195;53.176;9.486;2022-08-03T07:22:57;24.00;99.90
18139;DHT22;9195;53.176;9.486;2022-08-03T07:25:23;24.10;99.90
18139;DHT22;9195;53.176;9.486;2022-08-03T07:27:49;24.20;99.90
18139;DHT22;9195;53.176;9.486;2022-08-03T07:30:15;24.20;99.90
18139;DHT22;9195;53.176;9.486;2022-08-03T07:32:41;24.30;99.90
18139;DHT22;9195;53.176;9.486;2022-08-03T07:35:08;24.40;99.90
18139;DHT22;9195;53.176;9.486;2022-08-03T07:37:34;24.50;99.90
18139;DHT22;9195;53.176;9.486;2022-08-03T07:40:00;24.70;99.90
18139;DHT22;9195;53.176;9.486;2022-08-03T07:42:30;24.80;99.90
18139;DHT22;9195;53.176;9.486;2022-08-03T07:44:56;24.90;99.90
18139;DHT22;9195;53.176;9.486;2022-08-03T07:47:25;25.00;99.90
18139;DHT22;9195;53.176;9.486;2022-08-03T07:49:51;25.10;99.90
18139;DHT22;9195;53.176;9.486;2022-08-03T07:52:17;25.20;99.90
18139;DHT22;9195;53.176;9.486;2022-08-03T07:55:02;25.30;99.90
18139;DHT22;9195;53.176;9.486;2022-08-03T07:57:27;25.50;99.90
18139;DHT22;9195;53.176;9.486;2022-08-03T07:59:53;25.60;99.90
18139;DHT22;9195;53.176;9.486;2022-08-03T08:02:18;25.70;99.70
18139;DHT22;9195;53.176;9.486;2022-08-03T08:04:44;25.90;99.80
18139;DHT22;9195;53.176;9.486;2022-08-03T08:07:10;26.00;99.50
18139;DHT22;9195;53.176;9.486;2022-08-03T08:09:35;26.10;98.90
18139;DHT22;9195;53.176;9.486;2022-08-03T08:12:01;26.20;99.10
18139;DHT22;9195;53.176;9.486;2022-08-03T08:14:27;26.50;99.20
18139;DHT22;9195;53.176;9.486;2022-08-03T08:16:52;26.50;98.70
18139;DHT22;9195;53.176;9.486;2022-08-03T08:19:18;26.60;98.70
18139;DHT22;9195;53.176;9.486;2022-08-03T08:21:43;26.70;98.00
18139;DHT22;9195;53.176;9.486;2022-08-03T08:24:09;26.70;97.80
18139;DHT22;9195;53.176;9.486;2022-08-03T08:26:35;26.60;98.10
18139;DHT22;9195;53.176;9.486;2022-08-03T08:29:01;26.50;97.90
18139;DHT22;9195;53.176;9.486;2022-08-03T08:31:27;26.50;97.30
18139;DHT22;9195;53.176;9.486;2022-08-03T08:33:53;26.40;97.50
18139;DHT22;9195;53.176;9.486;2022-08-03T08:36:18;26.50;97.90
18139;DHT22;9195;53.176;9.486;2022-08-03T08:38:44;26.50;97.90
18139;DHT22;9195;53.176;9.486;2022-08-03T08:41:11;26.60;97.50
18139;DHT22;9195;53.176;9.486;2022-08-03T08:43:37;26.70;97.70
18139;DHT22;9195;53.176;9.486;2022-08-03T08:46:03;26.70;97.00
18139;DHT22;9195;53.176;9.486;2022-08-03T08:48:30;26.70;97.00
18139;DHT22;9195;53.176;9.486;2022-08-03T08:50:56;26.80;97.10
18139;DHT22;9195;53.176;9.486;2022-08-03T08:53:25;26.70;97.00
18139;DHT22;9195;53.176;9.486;2022-08-03T08:55:54;26.80;97.10
18139;DHT22;9195;53.176;9.486;2022-08-03T08:58:21;26.90;97.30
18139;DHT22;9195;53.176;9.486;2022-08-03T09:00:48;27.10;96.90
18139;DHT22;9195;53.176;9.486;2022-08-03T09:03:14;27.10;97.00
18139;DHT22;9195;53.176;9.486;2022-08-03T09:05:43;27.20;96.20
18139;DHT22;9195;53.176;9.486;2022-08-03T09:08:09;27.30;96.40
18139;DHT22;9195;53.176;9.486;2022-08-03T09:10:35;27.20;96.00
18139;DHT22;9195;53.176;9.486;2022-08-03T09:13:00;27.20;96.20
18139;DHT22;9195;53.176;9.486;2022-08-03T09:15:28;27.30;96.00
18139;DHT22;9195;53.176;9.486;2022-08-03T09:18:01;27.40;95.40
18139;DHT22;9195;53.176;9.486;2022-08-03T09:20:29;27.60;95.30
18139;DHT22;9195;53.176;9.486;2022-08-03T09:22:59;28.00;95.70
18139;DHT22;9195;53.176;9.486;2022-08-03T09:25:27;28.20;95.20
18139;DHT22;9195;53.176;9.486;2022-08-03T09:27:54;28.40;94.40
18139;DHT22;9195;53.176;9.486;2022-08-03T09:30:20;28.60;93.90
18139;DHT22;9195;53.176;9.486;2022-08-03T09:32:46;28.80;93.70
18139;DHT22;9195;53.176;9.486;2022-08-03T09:35:14;28.80;93.60
18139;DHT22;9195;53.176;9.486;2022-08-03T09:37:40;28.50;93.60
18139;DHT22;9195;53.176;9.486;2022-08-03T09:40:06;28.40;93.80
18139;DHT22;9195;53.176;9.486;2022-08-03T09:42:32;28.40;93.60
18139;DHT22;9195;53.176;9.486;2022-08-03T09:45:02;28.50;93.20
18139;DHT22;9195;53.176;9.486;2022-08-03T09:47:33;28.60;93.20
18139;DHT22;9195;53.176;9.486;2022-08-03T09:50:10;28.80;93.60
18139;DHT22;9195;53.176;9.486;2022-08-03T09:52:38;29.00;93.30
18139;DHT22;9195;53.176;9.486;2022-08-03T09:55:13;29.00;92.90
18139;DHT22;9195;53.176;9.486;2022-08-03T09:57:40;29.00;93.00
18139;DHT22;9195;53.176;9.486;2022-08-03T10:02:41;29.30;92.40
18139;DHT22;9195;53.176;9.486;2022-08-03T10:05:09;29.10;92.20
18139;DHT22;9195;53.176;9.486;2022-08-03T10:07:46;29.20;92.20
18139;DHT22;9195;53.176;9.486;2022-08-03T10:10:14;29.30;92.00
18139;DHT22;9195;53.176;9.486;2022-08-03T10:12:40;29.40;91.80
18139;DHT22;9195;53.176;9.486;2022-08-03T10:15:07;29.40;91.50
18139;DHT22;9195;53.176;9.486;2022-08-03T10:17:34;29.50;91.70
18139;DHT22;9195;53.176;9.486;2022-08-03T10:20:00;29.60;91.50
18139;DHT22;9195;53.176;9.486;2022-08-03T10:22:31;29.80;91.80
18139;DHT22;9195;53.176;9.486;2022-08-03T10:24:58;29.60;90.90
18139;DHT22;9195;53.176;9.486;2022-08-03T10:27:26;29.50;91.30
18139;DHT22;9195;53.176;9.486;2022-08-03T10:30:00;29.80;91.10
18139;DHT22;9195;53.176;9.486;2022-08-03T10:35:12;30.00;90.80
18139;DHT22;9195;53.176;9.486;2022-08-03T10:37:44;29.80;90.40
18139;DHT22;9195;53.176;9.486;2022-08-03T10:40:14;29.80;91.10
18139;DHT22;9195;53.176;9.486;2022-08-03T10:42:45;30.00;90.30
18139;DHT22;9195;53.176;9.486;2022-08-03T10:45:20;30.10;91.00
18139;DHT22;9195;53.176;9.486;2022-08-03T10:47:48;30.20;90.80
18139;DHT22;9195;53.176;9.486;2022-08-03T10:50:16;29.90;90.40
18139;DHT22;9195;53.176;9.486;2022-08-03T10:53:01;30.20;90.80
18139;DHT22;9195;53.176;9.486;2022-08-03T10:55:37;30.50;89.80
18139;DHT22;9195;53.176;9.486;2022-08-03T11:01:07;30.60;89.80
18139;DHT22;9195;53.176;9.486;2022-08-03T11:04:13;30.70;89.70
18139;DHT22;9195;53.176;9.486;2022-08-03T11:06:23;30.80;89.00
18139;DHT22;9195;53.176;9.486;2022-08-03T11:11:39;31.00;87.90
18139;DHT22;9195;53.176;9.486;2022-08-03T11:16:41;31.20;88.30
18139;DHT22;9195;53.176;9.486;2022-08-03T11:19:11;31.40;86.60
18139;DHT22;9195;53.176;9.486;2022-08-03T11:27:18;31.70;86.70
18139;DHT22;9195;53.176;9.486;2022-08-03T11:35:27;31.90;85.90
18139;DHT22;9195;53.176;9.486;2022-08-03T11:40:39;31.20;85.00
18139;DHT22;9195;53.176;9.486;2022-08-03T11:48:27;31.80;83.80
18139;DHT22;9195;53.176;9.486;2022-08-03T11:50:53;31.80;83.70
18139;DHT22;9195;53.176;9.486;2022-08-03T11:53:18;31.70;84.10
18139;DHT22;9195;53.176;9.486;2022-08-03T11:55:46;32.00;84.50
18139;DHT22;9195;53.176;9.486;2022-08-03T11:58:20;32.30;83.30
18139;DHT22;9195;53.176;9.486;2022-08-03T12:00:47;32.30;83.00
18139;DHT22;9195;53.176;9.486;2022-08-03T12:03:15;32.50;83.60
18139;DHT22;9195;53.176;9.486;2022-08-03T12:08:15;32.40;81.50
18139;DHT22;9195;53.176;9.486;2022-08-03T12:10:49;32.70;83.00
18139;DHT22;9195;53.176;9.486;2022-08-03T12:13:15;32.50;81.10
18139;DHT22;9195;53.176;9.486;2022-08-03T12:15:41;32.80;79.90
18139;DHT22;9195;53.176;9.486;2022-08-03T12:18:16;32.80;78.90
18139;DHT22;9195;53.176;9.486;2022-08-03T12:20:43;32.70;81.00
18139;DHT22;9195;53.176;9.486;2022-08-03T12:23:09;32.90;80.10
18139;DHT22;9195;53.176;9.486;2022-08-03T12:25:37;33.10;79.90
18139;DHT22;9195;53.176;9.486;2022-08-03T12:28:17;33.10;79.60
18139;DHT22;9195;53.176;9.486;2022-08-03T12:30:45;33.00;77.40
18139;DHT22;9195;53.176;9.486;2022-08-03T12:33:23;32.90;76.70
18139;DHT22;9195;53.176;9.486;2022-08-03T12:36:06;32.80;78.80
18139;DHT22;9195;53.176;9.486;2022-08-03T12:38:34;33.20;78.90
18139;DHT22;9195;53.176;9.486;2022-08-03T12:41:04;33.20;78.00
18139;DHT22;9195;53.176;9.486;2022-08-03T12:43:30;33.20;76.80
18139;DHT22;9195;53.176;9.486;2022-08-03T12:46:16;33.50;77.20
18139;DHT22;9195;53.176;9.486;2022-08-03T12:51:24;33.60;76.40
18139;DHT22;9195;53.176;9.486;2022-08-03T12:53:52;33.80;76.90
18139;DHT22;9195;53.176;9.486;2022-08-03T12:56:18;33.90;75.90
18139;DHT22;9195;53.176;9.486;2022-08-03T12:58:45;34.30;74.90
18139;DHT22;9195;53.176;9.486;2022-08-03T13:01:12;34.20;73.60
18139;DHT22;9195;53.176;9.486;2022-08-03T13:03:43;34.30;73.10
18139;DHT22;9195;53.176;9.486;2022-08-03T13:06:14;34.50;73.70
18139;DHT22;9195;53.176;9.486;2022-08-03T13:08:40;34.70;73.60
18139;DHT22;9195;53.176;9.486;2022-08-03T13:13:46;34.60;72.00
18139;DHT22;9195;53.176;9.486;2022-08-03T13:16:12;34.90;71.30
18139;DHT22;9195;53.176;9.486;2022-08-03T13:18:38;34.80;71.80
18139;DHT22;9195;53.176;9.486;2022-08-03T13:21:03;34.80;71.80
18139;DHT22;9195;53.176;9.486;2022-08-03T13:23:29;34.80;69.90
18139;DHT22;9195;53.176;9.486;2022-08-03T13:25:55;35.10;71.00
18139;DHT22;9195;53.176;9.486;2022-08-03T13:28:20;35.40;70.90
18139;DHT22;9195;53.176;9.486;2022-08-03T13:30:46;35.10;70.50
18139;DHT22;9195;53.176;9.486;2022-08-03T13:33:12;35.70;70.80
18139;DHT22;9195;53.176;9.486;2022-08-03T13:35:37;36.00;69.70
18139;DHT22;9195;53.176;9.486;2022-08-03T13:38:03;36.40;67.40
18139;DHT22;9195;53.176;9.486;2022-08-03T13:40:28;36.70;65.70
18139;DHT22;9195;53.176;9.486;2022-08-03T13:42:56;37.10;66.90
18139;DHT22;9195;53.176;9.486;2022-08-03T13:45:22;37.10;65.90
18139;DHT22;9195;53.176;9.486;2022-08-03T13:47:48;37.70;65.20
18139;DHT22;9195;53.176;9.486;2022-08-03T13:50:14;37.60;64.40
18139;DHT22;9195;53.176;9.486;2022-08-03T13:52:40;37.70;64.00
18139;DHT22;9195;53.176;9.486;2022-08-03T13:55:06;38.10;64.00
18139;DHT22;9195;53.176;9.486;2022-08-03T13:57:33;37.40;63.60
18139;DHT22;9195;53.176;9.486;2022-08-03T14:00:00;37.30;64.80
18139;DHT22;9195;53.176;9.486;2022-08-03T14:02:25;38.90;63.10
18139;DHT22;9195;53.176;9.486;2022-08-03T14:04:51;42.10;60.80
18139;DHT22;9195;53.176;9.486;2022-08-03T14:07:16;43.60;56.40
18139;DHT22;9195;53.176;9.486;2022-08-03T14:09:42;45.10;55.90
18139;DHT22;9195;53.176;9.486;2022-08-03T14:12:08;46.50;53.20
18139;DHT22;9195;53.176;9.486;2022-08-03T14:14:33;47.40;51.00
18139;DHT22;9195;53.176;9.486;2022-08-03T14:16:59;49.10;49.50
18139;DHT22;9195;53.176;9.486;2022-08-03T14:19:24;49.60;48.10
18139;DHT22;9195;53.176;9.486;2022-08-03T14:21:50;47.70;47.70
18139;DHT22;9195;53.176;9.486;2022-08-03T14:24:15;47.00;48.90
18139;DHT22;9195;53.176;9.486;2022-08-03T14:26:41;49.40;47.30
18139;DHT22;9195;53.176;9.486;2022-08-03T14:29:07;51.40;45.90
18139;DHT22;9195;53.176;9.486;2022-08-03T14:31:32;50.20;45.10
18139;DHT22;9195;53.176;9.486;2022-08-03T14:33:58;50.30;45.80
18139;DHT22;9195;53.176;9.486;2022-08-03T14:36:23;50.20;45.30
18139;DHT22;9195;53.176;9.486;2022-08-03T14:38:49;51.20;45.40
18139;DHT22;9195;53.176;9.486;2022-08-03T14:41:15;53.80;43.30
18139;DHT22;9195;53.176;9.486;2022-08-03T14:43:40;51.70;43.70
18139;DHT22;9195;53.176;9.486;2022-08-03T14:46:06;48.40;44.90
18139;DHT22;9195;53.176;9.486;2022-08-03T14:48:32;45.80;47.60
18139;DHT22;9195;53.176;9.486;2022-08-03T14:50:57;45.60;48.00
18139;DHT22;9195;53.176;9.486;2022-08-03T14:53:23;46.40;46.90
18139;DHT22;9195;53.176;9.486;2022-08-03T14:55:49;45.70;47.20
18139;DHT22;9195;53.176;9.486;2022-08-03T14:58:21;48.40;46.60
18139;DHT22;9195;53.176;9.486;2022-08-03T15:00:47;51.70;44.30
18139;DHT22;9195;53.176;9.486;2022-08-03T15:03:12;53.80;41.10
18139;DHT22;9195;53.176;9.486;2022-08-03T15:05:38;55.40;40.30
18139;DHT22;9195;53.176;9.486;2022-08-03T15:08:04;56.00;39.50
18139;DHT22;9195;53.176;9.486;2022-08-03T15:10:30;55.50;39.80
18139;DHT22;9195;53.176;9.486;2022-08-03T15:12:55;57.10;38.60
18139;DHT22;9195;53.176;9.486;2022-08-03T15:15:21;57.90;37.50
18139;DHT22;9195;53.176;9.486;2022-08-03T15:17:47;58.90;36.40
18139;DHT22;9195;53.176;9.486;2022-08-03T15:20:12;58.10;37.90
18139;DHT22;9195;53.176;9.486;2022-08-03T15:22:39;57.60;37.00
18139;DHT22;9195;53.176;9.486;2022-08-03T15:25:06;54.80;37.90
18139;DHT22;9195;53.176;9.486;2022-08-03T15:27:32;53.00;39.00
18139;DHT22;9195;53.176;9.486;2022-08-03T15:29:57;49.30;41.40
18139;DHT22;9195;53.176;9.486;2022-08-03T15:32:23;46.30;44.20
18139;DHT22;9195;53.176;9.486;2022-08-03T15:34:48;47.30;45.30
18139;DHT22;9195;53.176;9.486;2022-08-03T15:37:15;51.40;42.50
18139;DHT22;9195;53.176;9.486;2022-08-03T15:39:41;52.50;40.40
18139;DHT22;9195;53.176;9.486;2022-08-03T15:42:06;54.00;39.00
18139;DHT22;9195;53.176;9.486;2022-08-03T15:44:32;55.10;38.70
18139;DHT22;9195;53.176;9.486;2022-08-03T15:46:57;53.10;39.50
18139;DHT22;9195;53.176;9.486;2022-08-03T15:49:23;51.90;40.90
18139;DHT22;9195;53.176;9.486;2022-08-03T15:51:48;50.50;40.90
18139;DHT22;9195;53.176;9.486;2022-08-03T15:54:14;46.50;44.70
18139;DHT22;9195;53.176;9.486;2022-08-03T15:56:40;43.40;47.30
18139;DHT22;9195;53.176;9.486;2022-08-03T15:59:10;41.90;49.30
18139;DHT22;9195;53.176;9.486;2022-08-03T16:01:35;41.00;49.90
18139;DHT22;9195;53.176;9.486;2022-08-03T16:04:01;38.50;53.20
18139;DHT22;9195;53.176;9.486;2022-08-03T16:06:26;38.70;54.80
18139;DHT22;9195;53.176;9.486;2022-08-03T16:08:52;40.90;52.50
18139;DHT22;9195;53.176;9.486;2022-08-03T16:11:17;42.80;49.40
18139;DHT22;9195;53.176;9.486;2022-08-03T16:13:43;41.70;50.40
18139;DHT22;9195;53.176;9.486;2022-08-03T16:16:08;40.50;52.20
18139;DHT22;9195;53.176;9.486;2022-08-03T16:18:34;40.00;53.00
18139;DHT22;9195;53.176;9.486;2022-08-03T16:21:00;39.80;53.60
18139;DHT22;9195;53.176;9.486;2022-08-03T16:23:25;39.00;55.00
18139;DHT22;9195;53.176;9.486;2022-08-03T16:25:51;38.00;56.10
18139;DHT22;9195;53.176;9.486;2022-08-03T16:28:17;38.20;56.20
18139;DHT22;9195;53.176;9.486;2022-08-03T16:30:44;38.10;56.30
18139;DHT22;9195;53.176;9.486;2022-08-03T16:33:10;37.70;57.70
18139;DHT22;9195;53.176;9.486;2022-08-03T16:35:37;37.70;58.40
18139;DHT22;9195;53.176;9.486;2022-08-03T16:38:04;37.30;57.50
18139;DHT22;9195;53.176;9.486;2022-08-03T16:40:31;36.60;58.60